sensor_id;sensor_type;location;lat;lon;timestamp;pressure;altitude;pressure_sealevel;temperature;humidity
35888;BME280;21990;42.540;23.496;2024-02-23T00:01:36;93279.44;;;4.52;87.10
35888;BME280;21990;42.540;23.496;2024-02-23T00:04:01;93276.38;;;4.50;87.38
35888;BME280;21990;42.540;23.496;2024-02-23T00:06:28;93285.00;;;4.52;86.65
35888;BME280;21990;42.540;23.496;2024-02-23T00:08:54;93288.84;;;4.55;86.44
35888;BME280;21990;42.540;23.496;2024-02-23T00:11:20;93285.81;;;4.58;86.09
35888;BME280;21990;42.540;23.496;2024-02-23T00:13:46;93262.47;;;4.61;85.82
35888;BME280;21990;42.540;23.496;2024-02-23T00:16:12;93269.75;;;4.48;85.64
35888;BME280;21990;42.540;23.496;2024-02-23T00:18:38;93268.47;;;4.38;87.08
35888;BME280;21990;42.540;23.496;2024-02-23T00:21:04;93276.88;;;4.43;86.70
35888;BME280;21990;42.540;23.496;2024-02-23T00:23:29;93268.25;;;4.52;86.35
35888;BME280;21990;42.540;23.496;2024-02-23T00:25:55;93271.28;;;4.43;86.42
35888;BME280;21990;42.540;23.496;2024-02-23T00:28:20;93272.59;;;4.53;86.12
35888;BME280;21990;42.540;23.496;2024-02-23T00:30:45;93271.63;;;4.62;85.75
35888;BME280;21990;42.540;23.496;2024-02-23T00:33:11;93277.19;;;4.67;85.63
35888;BME280;21990;42.540;23.496;2024-02-23T00:35:36;93278.25;;;4.75;84.94
35888;BME280;21990;42.540;23.496;2024-02-23T00:38:02;93263.31;;;4.78;84.72
35888;BME280;21990;42.540;23.496;2024-02-23T00:40:27;93267.31;;;4.66;85.11
35888;BME280;21990;42.540;23.496;2024-02-23T00:42:53;93261.47;;;4.59;85.16
35888;BME280;21990;42.540;23.496;2024-02-23T00:45:19;93265.00;;;4.54;86.08
35888;BME280;21990;42.540;23.496;2024-02-23T00:47:44;93256.63;;;4.54;85.68
35888;BME280;21990;42.540;23.496;2024-02-23T00:50:12;93264.66;;;4.41;86.73
35888;BME280;21990;42.540;23.496;2024-02-23T00:52:38;93260.59;;;4.36;87.35
35888;BME280;21990;42.540;23.496;2024-02-23T00:55:03;93260.13;;;4.43;86.82
35888;BME280;21990;42.540;23.496;2024-02-23T00:57:29;93253.50;;;4.41;86.69
35888;BME280;21990;42.540;23.496;2024-02-23T00:59:56;93249.22;;;4.40;86.45
35888;BME280;21990;42.540;23.496;2024-02-23T01:02:22;93238.06;;;4.45;86.30
35888;BME280;21990;42.540;23.496;2024-02-23T01:04:47;93248.41;;;4.34;86.88
35888;BME280;21990;42.540;23.496;2024-02-23T01:07:13;93248.97;;;4.43;86.66
35888;BME280;21990;42.540;23.496;2024-02-23T01:09:38;93240.31;;;4.36;86.94
35888;BME280;21990;42.540;23.496;2024-02-23T01:12:04;93231.44;;;4.37;87.12
35888;BME280;21990;42.540;23.496;2024-02-23T01:14:29;93241.34;;;4.38;86.85
35888;BME280;21990;42.540;23.496;2024-02-23T01:16:55;93232.97;;;4.44;86.57
35888;BME280;21990;42.540;23.496;2024-02-23T01:19:20;93237.31;;;4.45;86.83
35888;BME280;21990;42.540;23.496;2024-02-23T01:21:46;93231.47;;;4.43;87.17
35888;BME280;21990;42.540;23.496;2024-02-23T01:24:12;93229.22;;;4.47;86.82
35888;BME280;21990;42.540;23.496;2024-02-23T01:26:37;93228.44;;;4.52;86.46
35888;BME280;21990;42.540;23.496;2024-02-23T01:29:03;93225.91;;;4.43;86.45
35888;BME280;21990;42.540;23.496;2024-02-23T01:31:28;93225.63;;;4.41;87.46
35888;BME280;21990;42.540;23.496;2024-02-23T01:33:54;93216.28;;;4.49;86.87
35888;BME280;21990;42.540;23.496;2024-02-23T01:36:20;93220.34;;;4.54;86.70
35888;BME280;21990;42.540;23.496;2024-02-23T01:38:45;93221.53;;;4.36;87.38
35888;BME280;21990;42.540;23.496;2024-02-23T01:41:14;93209.34;;;4.28;87.34
35888;BME280;21990;42.540;23.496;2024-02-23T01:43:40;93207.59;;;4.30;87.32
35888;BME280;21990;42.540;23.496;2024-02-23T01:46:05;93211.38;;;4.27;87.60
35888;BME280;21990;42.540;23.496;2024-02-23T01:48:32;93206.81;;;4.30;87.51
35888;BME280;21990;42.540;23.496;2024-02-23T01:50:58;93214.69;;;4.32;87.31
35888;BME280;21990;42.540;23.496;2024-02-23T01:53:24;93215.91;;;4.25;87.46
35888;BME280;21990;42.540;23.496;2024-02-23T01:55:51;93204.22;;;4.15;88.21
35888;BME280;21990;42.540;23.496;2024-02-23T01:58:18;93194.00;;;4.01;89.11
35888;BME280;21990;42.540;23.496;2024-02-23T02:00:43;93190.50;;;4.06;89.07
35888;BME280;21990;42.540;23.496;2024-02-23T02:03:09;93188.72;;;4.09;89.00
35888;BME280;21990;42.540;23.496;2024-02-23T02:05:36;93193.03;;;4.04;89.15
35888;BME280;21990;42.540;23.496;2024-02-23T02:08:02;93183.41;;;4.11;89.23
35888;BME280;21990;42.540;23.496;2024-02-23T02:10:28;93187.97;;;4.08;89.45
35888;BME280;21990;42.540;23.496;2024-02-23T02:12:54;93172.81;;;4.20;88.09
35888;BME280;21990;42.540;23.496;2024-02-23T02:15:19;93183.50;;;4.27;88.17
35888;BME280;21990;42.540;23.496;2024-02-23T02:17:47;93185.00;;;4.28;87.93
35888;BME280;21990;42.540;23.496;2024-02-23T02:20:13;93171.53;;;4.16;88.97
35888;BME280;21990;42.540;23.496;2024-02-23T02:22:39;93179.38;;;4.12;89.24
35888;BME280;21990;42.540;23.496;2024-02-23T02:25:05;93176.59;;;4.12;89.36
35888;BME280;21990;42.540;23.496;2024-02-23T02:27:31;93190.56;;;4.23;88.82
35888;BME280;21990;42.540;23.496;2024-02-23T02:29:57;93178.09;;;4.13;88.78
35888;BME280;21990;42.540;23.496;2024-02-23T02:32:23;93187.63;;;3.90;90.32
35888;BME280;21990;42.540;23.496;2024-02-23T02:34:48;93189.91;;;3.91;90.70
35888;BME280;21990;42.540;23.496;2024-02-23T02:37:14;93191.16;;;3.90;90.47
35888;BME280;21990;42.540;23.496;2024-02-23T02:39:40;93189.91;;;3.91;90.36
35888;BME280;21990;42.540;23.496;2024-02-23T02:42:05;93191.47;;;3.98;90.01
35888;BME280;21990;42.540;23.496;2024-02-23T02:44:31;93186.88;;;3.95;89.83
35888;BME280;21990;42.540;23.496;2024-02-23T02:46:57;93200.06;;;3.94;90.17
35888;BME280;21990;42.540;23.496;2024-02-23T02:49:23;93189.91;;;3.91;90.48
35888;BME280;21990;42.540;23.496;2024-02-23T02:51:49;93177.75;;;3.89;90.77
35888;BME280;21990;42.540;23.496;2024-02-23T02:54:14;93182.81;;;3.90;90.60
35888;BME280;21990;42.540;23.496;2024-02-23T02:56:43;93181.56;;;3.91;90.72
35888;BME280;21990;42.540;23.496;2024-02-23T02:59:09;93178.00;;;3.85;90.73
35888;BME280;21990;42.540;23.496;2024-02-23T03:01:35;93177.19;;;3.79;91.30
35888;BME280;21990;42.540;23.496;2024-02-23T03:04:01;93180.25;;;3.81;91.53
35888;BME280;21990;42.540;23.496;2024-02-23T03:06:26;93186.53;;;3.76;91.45
35888;BME280;21990;42.540;23.496;2024-02-23T03:08:52;93185.25;;;3.71;91.83
35888;BME280;21990;42.540;23.496;2024-02-23T03:11:17;93177.16;;;3.73;91.78
35888;BME280;21990;42.540;23.496;2024-02-23T03:13:43;93184.53;;;3.76;91.92
35888;BME280;21990;42.540;23.496;2024-02-23T03:16:18;93181.22;;;3.72;91.88
35888;BME280;21990;42.540;23.496;2024-02-23T03:18:44;93179.97;;;3.73;91.93
35888;BME280;21990;42.540;23.496;2024-02-23T03:21:09;93179.44;;;3.69;92.32
35888;BME280;21990;42.540;23.496;2024-02-23T03:23:36;93182.94;;;3.70;92.07
35888;BME280;21990;42.540;23.496;2024-02-23T03:26:02;93182.13;;;3.58;92.58
35888;BME280;21990;42.540;23.496;2024-02-23T03:28:28;93194.56;;;3.63;92.38
35888;BME280;21990;42.540;23.496;2024-02-23T03:30:53;93182.94;;;3.64;92.36
35888;BME280;21990;42.540;23.496;2024-02-23T03:33:20;93175.31;;;3.59;92.72
35888;BME280;21990;42.540;23.496;2024-02-23T03:35:46;93181.63;;;3.60;92.55
35888;BME280;21990;42.540;23.496;2024-02-23T03:38:11;93185.13;;;3.55;92.90
35888;BME280;21990;42.540;23.496;2024-02-23T03:40:37;93182.34;;;3.49;93.19
35888;BME280;21990;42.540;23.496;2024-02-23T03:43:03;93187.16;;;3.54;93.02
35888;BME280;21990;42.540;23.496;2024-02-23T03:45:29;93201.38;;;3.56;93.18
35888;BME280;21990;42.540;23.496;2024-02-23T03:47:54;93194.25;;;3.55;93.14
35888;BME280;21990;42.540;23.496;2024-02-23T03:50:20;93185.91;;;3.55;93.19
35888;BME280;21990;42.540;23.496;2024-02-23T03:52:45;93188.44;;;3.53;92.91
35888;BME280;21990;42.540;23.496;2024-02-23T03:55:11;93194.16;;;3.39;93.67
35888;BME280;21990;42.540;23.496;2024-02-23T03:57:37;93194.44;;;3.41;93.72
35888;BME280;21990;42.540;23.496;2024-02-23T04:00:03;93199.91;;;3.29;94.18
35888;BME280;21990;42.540;23.496;2024-02-23T04:02:29;93200.72;;;3.35;94.02
35888;BME280;21990;42.540;23.496;2024-02-23T04:04:55;93204.78;;;3.34;93.94
35888;BME280;21990;42.540;23.496;2024-02-23T04:07:20;93206.75;;;3.28;94.35
35888;BME280;21990;42.540;23.496;2024-02-23T04:09:46;93192.06;;;3.28;94.44
35888;BME280;21990;42.540;23.496;2024-02-23T04:12:18;93190.22;;;3.19;94.67
35888;BME280;21990;42.540;23.496;2024-02-23T04:14:45;93197.47;;;3.11;95.61
35888;BME280;21990;42.540;23.496;2024-02-23T04:17:11;93197.00;;;3.13;95.02
35888;BME280;21990;42.540;23.496;2024-02-23T04:19:43;93191.44;;;3.13;94.89
35888;BME280;21990;42.540;23.496;2024-02-23T04:22:09;93190.66;;;3.12;95.07
35888;BME280;21990;42.540;23.496;2024-02-23T04:24:38;93202.94;;;3.26;94.19
35888;BME280;21990;42.540;23.496;2024-02-23T04:27:05;93195.47;;;3.12;94.52
35888;BME280;21990;42.540;23.496;2024-02-23T04:29:31;93195.38;;;3.32;93.59
35888;BME280;21990;42.540;23.496;2024-02-23T04:31:58;93200.16;;;3.26;93.91
35888;BME280;21990;42.540;23.496;2024-02-23T04:34:23;93199.16;;;3.29;93.95
35888;BME280;21990;42.540;23.496;2024-02-23T04:36:49;93203.41;;;3.24;93.92
35888;BME280;21990;42.540;23.496;2024-02-23T04:39:14;93201.66;;;3.27;93.61
35888;BME280;21990;42.540;23.496;2024-02-23T04:41:40;93202.16;;;3.25;93.87
35888;BME280;21990;42.540;23.496;2024-02-23T04:44:05;93213.75;;;3.18;94.21
35888;BME280;21990;42.540;23.496;2024-02-23T04:46:31;93206.66;;;3.17;94.47
35888;BME280;21990;42.540;23.496;2024-02-23T04:48:57;93201.53;;;3.10;95.07
35888;BME280;21990;42.540;23.496;2024-02-23T04:51:22;93202.03;;;3.09;95.30
35888;BME280;21990;42.540;23.496;2024-02-23T04:53:49;93214.06;;;3.26;94.41
35888;BME280;21990;42.540;23.496;2024-02-23T04:56:15;93207.38;;;3.12;94.85
35888;BME280;21990;42.540;23.496;2024-02-23T04:58:40;93204.88;;;3.14;94.56
35888;BME280;21990;42.540;23.496;2024-02-23T05:01:08;93203.72;;;3.01;95.43
35888;BME280;21990;42.540;23.496;2024-02-23T05:03:33;93211.94;;;2.84;96.73
35888;BME280;21990;42.540;23.496;2024-02-23T05:05:59;93206.53;;;2.75;97.56
35888;BME280;21990;42.540;23.496;2024-02-23T05:08:24;93211.44;;;2.85;97.23
35888;BME280;21990;42.540;23.496;2024-02-23T05:10:50;93209.09;;;2.78;97.48
35888;BME280;21990;42.540;23.496;2024-02-23T05:13:16;93207.34;;;2.81;96.96
35888;BME280;21990;42.540;23.496;2024-02-23T05:15:42;93206.38;;;2.84;97.05
35888;BME280;21990;42.540;23.496;2024-02-23T05:18:07;93215.97;;;2.83;97.13
35888;BME280;21990;42.540;23.496;2024-02-23T05:20:33;93201.00;;;2.80;97.12
35888;BME280;21990;42.540;23.496;2024-02-23T05:22:58;93216.28;;;2.91;96.71
35888;BME280;21990;42.540;23.496;2024-02-23T05:25:24;93222.63;;;2.91;96.87
35888;BME280;21990;42.540;23.496;2024-02-23T05:27:53;93205.94;;;2.91;96.45
35888;BME280;21990;42.540;23.496;2024-02-23T05:30:19;93222.22;;;3.04;95.76
35888;BME280;21990;42.540;23.496;2024-02-23T05:32:44;93222.66;;;2.97;96.08
35888;BME280;21990;42.540;23.496;2024-02-23T05:35:10;93221.72;;;3.05;95.54
35888;BME280;21990;42.540;23.496;2024-02-23T05:37:36;93220.03;;;3.13;94.70
35888;BME280;21990;42.540;23.496;2024-02-23T05:40:03;93221.34;;;3.18;94.59
35888;BME280;21990;42.540;23.496;2024-02-23T05:42:36;93217.63;;;3.26;94.63
35888;BME280;21990;42.540;23.496;2024-02-23T05:45:08;93231.78;;;3.23;94.09
35888;BME280;21990;42.540;23.496;2024-02-23T05:47:40;93235.56;;;3.25;94.25
35888;BME280;21990;42.540;23.496;2024-02-23T05:50:08;93233.88;;;3.33;93.72
35888;BME280;21990;42.540;23.496;2024-02-23T05:52:34;93240.47;;;3.36;93.67
35888;BME280;21990;42.540;23.496;2024-02-23T05:55:01;93232.66;;;3.40;93.09
35888;BME280;21990;42.540;23.496;2024-02-23T05:57:27;93245.53;;;3.38;93.47
35888;BME280;21990;42.540;23.496;2024-02-23T05:59:53;93247.34;;;3.41;93.81
35888;BME280;21990;42.540;23.496;2024-02-23T06:02:19;93239.53;;;3.45;93.53
35888;BME280;21990;42.540;23.496;2024-02-23T06:04:44;93238.28;;;3.46;94.11
35888;BME280;21990;42.540;23.496;2024-02-23T06:07:13;93239.88;;;3.58;94.69
35888;BME280;21990;42.540;23.496;2024-02-23T06:09:44;93249.09;;;3.69;93.78
35888;BME280;21990;42.540;23.496;2024-02-23T06:12:10;93244.53;;;3.77;93.41
35888;BME280;21990;42.540;23.496;2024-02-23T06:14:36;93258.94;;;4.07;94.65
35888;BME280;21990;42.540;23.496;2024-02-23T06:17:02;93253.56;;;4.52;93.97
35888;BME280;21990;42.540;23.496;2024-02-23T06:19:28;93262.41;;;5.32;94.60
35888;BME280;21990;42.540;23.496;2024-02-23T06:21:54;93262.41;;;5.93;89.68
35888;BME280;21990;42.540;23.496;2024-02-23T06:24:19;93250.28;;;6.64;88.20
35888;BME280;21990;42.540;23.496;2024-02-23T06:26:45;93262.59;;;6.97;81.49
35888;BME280;21990;42.540;23.496;2024-02-23T06:29:11;93263.88;;;7.72;83.76
35888;BME280;21990;42.540;23.496;2024-02-23T06:31:38;93246.22;;;8.61;81.74
35888;BME280;21990;42.540;23.496;2024-02-23T06:34:05;93249.16;;;8.50;74.44
35888;BME280;21990;42.540;23.496;2024-02-23T06:36:30;93256.47;;;8.58;74.20
35888;BME280;21990;42.540;23.496;2024-02-23T06:38:56;93253.22;;;8.73;74.38
35888;BME280;21990;42.540;23.496;2024-02-23T06:41:22;93254.88;;;9.25;76.53
35888;BME280;21990;42.540;23.496;2024-02-23T06:43:47;93242.25;;;9.82;72.79
35888;BME280;21990;42.540;23.496;2024-02-23T06:46:13;93255.06;;;10.28;72.66
35888;BME280;21990;42.540;23.496;2024-02-23T06:48:39;93260.22;;;10.95;75.49
35888;BME280;21990;42.540;23.496;2024-02-23T06:51:05;93258.75;;;11.41;69.23
35888;BME280;21990;42.540;23.496;2024-02-23T06:53:34;93247.78;;;11.37;74.46
35888;BME280;21990;42.540;23.496;2024-02-23T06:56:00;93255.91;;;12.50;65.71
35888;BME280;21990;42.540;23.496;2024-02-23T06:58:26;93243.09;;;11.87;61.51
35888;BME280;21990;42.540;23.496;2024-02-23T07:00:52;93253.94;;;12.17;70.01
35888;BME280;21990;42.540;23.496;2024-02-23T07:03:17;93245.34;;;12.71;63.75
35888;BME280;21990;42.540;23.496;2024-02-23T07:05:43;93232.81;;;12.88;60.49
35888;BME280;21990;42.540;23.496;2024-02-23T07:08:10;93243.31;;;12.51;59.12
35888;BME280;21990;42.540;23.496;2024-02-23T07:10:36;93244.94;;;12.67;61.21
35888;BME280;21990;42.540;23.496;2024-02-23T07:13:02;93247.94;;;12.41;59.31
35888;BME280;21990;42.540;23.496;2024-02-23T07:15:27;93230.88;;;12.54;62.97
35888;BME280;21990;42.540;23.496;2024-02-23T07:17:53;93235.34;;;12.99;58.31
35888;BME280;21990;42.540;23.496;2024-02-23T07:20:19;93239.59;;;12.35;54.96
35888;BME280;21990;42.540;23.496;2024-02-23T07:22:45;93224.41;;;11.63;56.12
35888;BME280;21990;42.540;23.496;2024-02-23T07:25:11;93234.72;;;11.14;57.65
35888;BME280;21990;42.540;23.496;2024-02-23T07:27:37;93228.78;;;10.91;59.24
35888;BME280;21990;42.540;23.496;2024-02-23T07:30:02;93233.78;;;10.72;60.43
35888;BME280;21990;42.540;23.496;2024-02-23T07:32:30;93230.44;;;10.73;60.85
35888;BME280;21990;42.540;23.496;2024-02-23T07:34:55;93222.72;;;10.61;62.15
35888;BME280;21990;42.540;23.496;2024-02-23T07:37:21;93213.91;;;11.04;64.27
35888;BME280;21990;42.540;23.496;2024-02-23T07:39:46;93216.97;;;10.92;59.52
35888;BME280;21990;42.540;23.496;2024-02-23T07:42:12;93219.16;;;10.73;62.55
35888;BME280;21990;42.540;23.496;2024-02-23T07:44:40;93222.81;;;10.94;62.87
35888;BME280;21990;42.540;23.496;2024-02-23T07:47:06;93221.72;;;10.98;60.13
35888;BME280;21990;42.540;23.496;2024-02-23T07:49:31;93208.41;;;10.85;59.34
35888;BME280;21990;42.540;23.496;2024-02-23T07:51:57;93200.16;;;10.87;59.54
35888;BME280;21990;42.540;23.496;2024-02-23T07:54:22;93206.22;;;11.04;63.95
35888;BME280;21990;42.540;23.496;2024-02-23T07:56:48;93190.59;;;11.03;59.88
35888;BME280;21990;42.540;23.496;2024-02-23T07:59:13;93202.41;;;11.02;60.30
35888;BME280;21990;42.540;23.496;2024-02-23T08:01:39;93194.91;;;11.17;61.98
35888;BME280;21990;42.540;23.496;2024-02-23T08:04:05;93205.19;;;11.28;60.17
35888;BME280;21990;42.540;23.496;2024-02-23T08:06:31;93214.34;;;11.55;61.86
35888;BME280;21990;42.540;23.496;2024-02-23T08:08:56;93196.13;;;11.76;58.59
35888;BME280;21990;42.540;23.496;2024-02-23T08:11:22;93189.81;;;11.83;58.73
35888;BME280;21990;42.540;23.496;2024-02-23T08:13:47;93206.81;;;11.91;56.77
35888;BME280;21990;42.540;23.496;2024-02-23T08:16:13;93199.44;;;12.09;60.88
35888;BME280;21990;42.540;23.496;2024-02-23T08:18:40;93203.63;;;12.36;57.62
35888;BME280;21990;42.540;23.496;2024-02-23T08:21:06;93194.31;;;12.49;58.45
35888;BME280;21990;42.540;23.496;2024-02-23T08:23:32;93196.91;;;12.47;55.71
35888;BME280;21990;42.540;23.496;2024-02-23T08:25:58;93189.06;;;12.53;56.32
35888;BME280;21990;42.540;23.496;2024-02-23T08:28:25;93198.53;;;12.63;55.69
35888;BME280;21990;42.540;23.496;2024-02-23T08:30:50;93181.47;;;12.76;56.27
35888;BME280;21990;42.540;23.496;2024-02-23T08:33:16;93176.22;;;12.80;54.30
35888;BME280;21990;42.540;23.496;2024-02-23T08:35:44;93182.19;;;13.05;55.10
35888;BME280;21990;42.540;23.496;2024-02-23T08:38:10;93178.09;;;13.13;54.07
35888;BME280;21990;42.540;23.496;2024-02-23T08:40:36;93183.47;;;13.32;54.71
35888;BME280;21990;42.540;23.496;2024-02-23T08:43:01;93182.56;;;13.45;53.79
35888;BME280;21990;42.540;23.496;2024-02-23T08:45:28;93168.47;;;13.60;54.11
35888;BME280;21990;42.540;23.496;2024-02-23T08:47:53;93176.59;;;13.78;54.39
35888;BME280;21990;42.540;23.496;2024-02-23T08:50:19;93168.72;;;13.92;54.94
35888;BME280;21990;42.540;23.496;2024-02-23T08:52:44;93172.13;;;14.06;53.13
35888;BME280;21990;42.540;23.496;2024-02-23T08:55:10;93185.91;;;14.17;53.20
35888;BME280;21990;42.540;23.496;2024-02-23T08:57:37;93187.25;;;14.16;51.58
35888;BME280;21990;42.540;23.496;2024-02-23T09:00:04;93190.47;;;14.27;53.17
35888;BME280;21990;42.540;23.496;2024-02-23T09:02:30;93185.19;;;14.39;51.53
35888;BME280;21990;42.540;23.496;2024-02-23T09:04:57;93181.38;;;14.59;52.25
35888;BME280;21990;42.540;23.496;2024-02-23T09:07:23;93177.03;;;14.73;51.06
35888;BME280;21990;42.540;23.496;2024-02-23T09:09:49;93184.78;;;14.81;49.62
35888;BME280;21990;42.540;23.496;2024-02-23T09:12:15;93194.22;;;14.76;48.93
35888;BME280;21990;42.540;23.496;2024-02-23T09:14:45;93177.19;;;14.83;50.18
35888;BME280;21990;42.540;23.496;2024-02-23T09:17:11;93175.34;;;14.78;48.61
35888;BME280;21990;42.540;23.496;2024-02-23T09:19:38;93171.34;;;14.89;49.53
35888;BME280;21990;42.540;23.496;2024-02-23T09:22:03;93183.41;;;15.04;50.42
35888;BME280;21990;42.540;23.496;2024-02-23T09:24:29;93166.31;;;15.19;48.44
35888;BME280;21990;42.540;23.496;2024-02-23T09:26:55;93179.53;;;15.32;48.60
35888;BME280;21990;42.540;23.496;2024-02-23T09:29:20;93167.91;;;15.45;47.35
35888;BME280;21990;42.540;23.496;2024-02-23T09:31:46;93168.47;;;15.59;49.84
35888;BME280;21990;42.540;23.496;2024-02-23T09:34:12;93181.47;;;15.70;47.33
35888;BME280;21990;42.540;23.496;2024-02-23T09:36:37;93172.94;;;15.70;46.77
35888;BME280;21990;42.540;23.496;2024-02-23T09:39:03;93176.09;;;15.81;47.78
35888;BME280;21990;42.540;23.496;2024-02-23T09:41:30;93176.66;;;15.80;46.76
35888;BME280;21990;42.540;23.496;2024-02-23T09:43:59;93190.69;;;15.78;47.00
35888;BME280;21990;42.540;23.496;2024-02-23T09:46:25;93185.00;;;15.78;47.26
35888;BME280;21990;42.540;23.496;2024-02-23T09:48:51;93190.16;;;15.72;46.33
35888;BME280;21990;42.540;23.496;2024-02-23T09:51:17;93194.69;;;15.75;45.73
35888;BME280;21990;42.540;23.496;2024-02-23T09:53:44;93189.38;;;15.79;48.30
35888;BME280;21990;42.540;23.496;2024-02-23T09:56:10;93186.13;;;15.82;45.33
35888;BME280;21990;42.540;23.496;2024-02-23T09:58:36;93181.22;;;15.83;48.27
35888;BME280;21990;42.540;23.496;2024-02-23T10:01:03;93205.38;;;15.99;47.98
35888;BME280;21990;42.540;23.496;2024-02-23T10:03:30;93190.34;;;16.06;44.91
35888;BME280;21990;42.540;23.496;2024-02-23T10:05:59;93194.97;;;15.94;42.59
35888;BME280;21990;42.540;23.496;2024-02-23T10:08:27;93185.97;;;15.73;45.45
35888;BME280;21990;42.540;23.496;2024-02-23T10:10:53;93188.72;;;15.88;46.63
35888;BME280;21990;42.540;23.496;2024-02-23T10:13:22;93188.31;;;15.99;45.17
35888;BME280;21990;42.540;23.496;2024-02-23T10:15:51;93179.38;;;16.02;44.89
35888;BME280;21990;42.540;23.496;2024-02-23T10:18:17;93178.63;;;16.02;43.64
35888;BME280;21990;42.540;23.496;2024-02-23T10:20:43;93188.34;;;15.91;47.49
35888;BME280;21990;42.540;23.496;2024-02-23T10:23:09;93176.00;;;15.96;43.59
35888;BME280;21990;42.540;23.496;2024-02-23T10:25:35;93171.63;;;15.95;44.46
35888;BME280;21990;42.540;23.496;2024-02-23T10:28:10;93173.16;;;15.96;45.07
35888;BME280;21990;42.540;23.496;2024-02-23T10:30:36;93183.09;;;15.80;46.26
35888;BME280;21990;42.540;23.496;2024-02-23T10:33:03;93194.28;;;15.78;44.71
35888;BME280;21990;42.540;23.496;2024-02-23T10:35:31;93171.13;;;15.49;44.31
35888;BME280;21990;42.540;23.496;2024-02-23T10:37:57;93169.22;;;15.59;44.16
35888;BME280;21990;42.540;23.496;2024-02-23T10:40:24;93182.97;;;15.71;46.51
35888;BME280;21990;42.540;23.496;2024-02-23T10:42:56;93177.66;;;15.75;45.99
35888;BME280;21990;42.540;23.496;2024-02-23T10:45:22;93179.34;;;15.78;45.04
35888;BME280;21990;42.540;23.496;2024-02-23T10:47:48;93178.94;;;15.81;45.86
35888;BME280;21990;42.540;23.496;2024-02-23T10:50:14;93183.47;;;15.84;44.11
35888;BME280;21990;42.540;23.496;2024-02-23T10:52:43;93181.06;;;15.73;44.54
35888;BME280;21990;42.540;23.496;2024-02-23T10:55:09;93208.41;;;15.53;43.92
35888;BME280;21990;42.540;23.496;2024-02-23T10:57:35;93184.47;;;15.24;45.18
35888;BME280;21990;42.540;23.496;2024-02-23T11:00:02;93200.53;;;15.21;46.02
35888;BME280;21990;42.540;23.496;2024-02-23T11:02:42;93171.91;;;14.80;44.74
35888;BME280;21990;42.540;23.496;2024-02-23T11:05:10;93175.69;;;14.67;45.92
35888;BME280;21990;42.540;23.496;2024-02-23T11:07:40;93173.22;;;14.79;47.40
35888;BME280;21990;42.540;23.496;2024-02-23T11:10:06;93171.34;;;14.89;45.26
35888;BME280;21990;42.540;23.496;2024-02-23T11:12:33;93163.78;;;14.76;46.17
35888;BME280;21990;42.540;23.496;2024-02-23T11:15:00;93150.91;;;14.83;46.41
35888;BME280;21990;42.540;23.496;2024-02-23T11:17:30;93159.75;;;15.09;46.21
35888;BME280;21990;42.540;23.496;2024-02-23T11:19:56;93154.78;;;15.25;46.28
35888;BME280;21990;42.540;23.496;2024-02-23T11:22:33;93138.91;;;15.14;44.32
35888;BME280;21990;42.540;23.496;2024-02-23T11:25:01;93137.41;;;15.13;45.68
35888;BME280;21990;42.540;23.496;2024-02-23T11:27:33;93131.34;;;15.17;45.09
35888;BME280;21990;42.540;23.496;2024-02-23T11:30:05;93131.47;;;15.27;44.81
35888;BME280;21990;42.540;23.496;2024-02-23T11:32:40;93142.44;;;15.30;44.25
35888;BME280;21990;42.540;23.496;2024-02-23T11:35:07;93129.81;;;15.16;44.45
35888;BME280;21990;42.540;23.496;2024-02-23T11:37:53;93137.94;;;15.19;45.85
35888;BME280;21990;42.540;23.496;2024-02-23T11:40:32;93136.88;;;15.00;44.06
35888;BME280;21990;42.540;23.496;2024-02-23T11:42:58;93138.34;;;15.16;45.31
35888;BME280;21990;42.540;23.496;2024-02-23T11:45:30;93113.72;;;15.18;44.75
35888;BME280;21990;42.540;23.496;2024-02-23T11:47:56;93130.38;;;15.14;46.02
35888;BME280;21990;42.540;23.496;2024-02-23T11:50:21;93135.53;;;15.08;43.94
35888;BME280;21990;42.540;23.496;2024-02-23T11:52:47;93130.63;;;15.01;45.27
35888;BME280;21990;42.540;23.496;2024-02-23T11:55:18;93111.78;;;14.81;44.48
35888;BME280;21990;42.540;23.496;2024-02-23T11:57:45;93098.69;;;14.93;45.21
35888;BME280;21990;42.540;23.496;2024-02-23T12:00:10;93098.44;;;15.06;45.81
35888;BME280;21990;42.540;23.496;2024-02-23T12:02:36;93102.56;;;15.20;45.09
35888;BME280;21990;42.540;23.496;2024-02-23T12:05:02;93119.72;;;15.30;43.24
35888;BME280;21990;42.540;23.496;2024-02-23T12:07:32;93095.91;;;15.26;44.33
35888;BME280;21990;42.540;23.496;2024-02-23T12:09:58;93097.97;;;15.33;45.12
35888;BME280;21990;42.540;23.496;2024-02-23T12:12:25;93089.94;;;15.46;44.65
35888;BME280;21990;42.540;23.496;2024-02-23T12:14:51;93078.91;;;15.58;44.90
35888;BME280;21990;42.540;23.496;2024-02-23T12:17:17;93083.38;;;15.68;44.54
35888;BME280;21990;42.540;23.496;2024-02-23T12:19:42;93098.47;;;15.79;44.76
35888;BME280;21990;42.540;23.496;2024-02-23T12:22:10;93100.50;;;15.86;42.42
35888;BME280;21990;42.540;23.496;2024-02-23T12:24:35;93114.31;;;15.57;41.71
35888;BME280;21990;42.540;23.496;2024-02-23T12:27:01;93108.63;;;15.57;42.25
35888;BME280;21990;42.540;23.496;2024-02-23T12:29:26;93094.44;;;15.57;41.82
35888;BME280;21990;42.540;23.496;2024-02-23T12:32:03;93090.31;;;15.50;41.72
35888;BME280;21990;42.540;23.496;2024-02-23T12:34:29;93090.31;;;15.43;42.98
35888;BME280;21990;42.540;23.496;2024-02-23T12:36:55;93104.22;;;15.31;42.79
35888;BME280;21990;42.540;23.496;2024-02-23T12:39:20;93098.56;;;15.24;42.47
35888;BME280;21990;42.540;23.496;2024-02-23T12:41:46;93087.75;;;15.30;42.13
35888;BME280;21990;42.540;23.496;2024-02-23T12:44:12;93091.50;;;15.40;43.50
35888;BME280;21990;42.540;23.496;2024-02-23T12:46:37;93084.44;;;15.48;43.83
35888;BME280;21990;42.540;23.496;2024-02-23T12:49:03;93093.56;;;15.39;42.87
35888;BME280;21990;42.540;23.496;2024-02-23T12:51:29;93096.94;;;15.45;42.51